sensor_id;sensor_type;location;lat;lon;timestamp;pressure;altitude;pressure_sealevel;temperature;humidity
65760;BME280;52496;51.082;5.066;2023-06-22T00:00:00;101732.09;;;20.08;100.00
65760;BME280;52496;51.082;5.066;2023-06-22T00:02:30;101722.75;;;20.04;100.00
65760;BME280;52496;51.082;5.066;2023-06-22T00:05:01;101722.13;;;20.02;100.00
65760;BME280;52496;51.082;5.066;2023-06-22T00:07:31;101730.28;;;20.02;100.00
65760;BME280;52496;51.082;5.066;2023-06-22T00:10:02;101724.25;;;20.00;100.00
65760;BME280;52496;51.082;5.066;2023-06-22T00:12:33;101725.09;;;20.01;100.00
65760;BME280;52496;51.082;5.066;2023-06-22T00:15:04;101719.66;;;20.01;100.00
65760;BME280;52496;51.082;5.066;2023-06-22T00:17:34;101711.28;;;20.02;100.00
65760;BME280;52496;51.082;5.066;2023-06-22T00:20:07;101708.09;;;20.05;100.00
65760;BME280;52496;51.082;5.066;2023-06-22T00:22:38;101703.28;;;20.07;100.00
65760;BME280;52496;51.082;5.066;2023-06-22T00:25:10;101694.69;;;20.10;100.00
65760;BME280;52496;51.082;5.066;2023-06-22T00:27:40;101688.19;;;20.11;100.00
65760;BME280;52496;51.082;5.066;2023-06-22T00:30:11;101701.19;;;20.09;100.00
65760;BME280;52496;51.082;5.066;2023-06-22T00:32:42;101700.56;;;20.07;100.00
65760;BME280;52496;51.082;5.066;2023-06-22T00:35:13;101699.38;;;20.03;100.00
65760;BME280;52496;51.082;5.066;2023-06-22T00:37:43;101695.44;;;19.99;100.00
65760;BME280;52496;51.082;5.066;2023-06-22T00:40:14;101695.31;;;19.94;100.00
65760;BME280;52496;51.082;5.066;2023-06-22T00:42:44;101691.59;;;19.88;100.00
65760;BME280;52496;51.082;5.066;2023-06-22T00:45:15;101701.47;;;19.83;100.00
65760;BME280;52496;51.082;5.066;2023-06-22T00:47:45;101696.13;;;19.76;100.00
65760;BME280;52496;51.082;5.066;2023-06-22T00:50:19;101699.50;;;19.71;100.00
65760;BME280;52496;51.082;5.066;2023-06-22T00:52:58;101694.50;;;19.68;100.00
65760;BME280;52496;51.082;5.066;2023-06-22T00:55:29;101693.31;;;19.64;100.00
65760;BME280;52496;51.082;5.066;2023-06-22T00:58:00;101691.66;;;19.57;100.00
65760;BME280;52496;51.082;5.066;2023-06-22T01:00:30;101692.56;;;19.51;100.00
65760;BME280;52496;51.082;5.066;2023-06-22T01:03:01;101703.28;;;19.45;100.00
65760;BME280;52496;51.082;5.066;2023-06-22T01:05:32;101703.03;;;19.47;100.00
65760;BME280;52496;51.082;5.066;2023-06-22T01:11:12;101700.50;;;19.52;100.00
65760;BME280;52496;51.082;5.066;2023-06-22T01:14:12;101696.28;;;19.56;100.00
65760;BME280;52496;51.082;5.066;2023-06-22T01:16:44;101699.97;;;19.62;100.00
65760;BME280;52496;51.082;5.066;2023-06-22T01:19:45;101702.28;;;19.65;100.00
65760;BME280;52496;51.082;5.066;2023-06-22T01:22:30;101693.94;;;19.66;100.00
65760;BME280;52496;51.082;5.066;2023-06-22T01:25:10;101699.94;;;19.68;100.00
65760;BME280;52496;51.082;5.066;2023-06-22T01:27:56;101690.78;;;19.69;100.00
65760;BME280;52496;51.082;5.066;2023-06-22T01:30:31;101689.50;;;19.72;100.00
65760;BME280;52496;51.082;5.066;2023-06-22T01:33:05;101687.38;;;19.74;100.00
65760;BME280;52496;51.082;5.066;2023-06-22T01:35:36;101680.66;;;19.77;100.00
65760;BME280;52496;51.082;5.066;2023-06-22T01:38:09;101689.41;;;19.79;100.00
65760;BME280;52496;51.082;5.066;2023-06-22T01:40:40;101686.47;;;19.80;100.00
65760;BME280;52496;51.082;5.066;2023-06-22T01:43:11;101683.53;;;19.82;100.00
65760;BME280;52496;51.082;5.066;2023-06-22T01:45:42;101681.41;;;19.84;98.47
65760;BME280;52496;51.082;5.066;2023-06-22T01:48:15;101686.00;;;19.83;96.62
65760;BME280;52496;51.082;5.066;2023-06-22T01:50:45;101684.97;;;19.84;98.80
65760;BME280;52496;51.082;5.066;2023-06-22T01:53:17;101682.25;;;19.84;98.87
65760;BME280;52496;51.082;5.066;2023-06-22T01:55:48;101671.63;;;19.83;97.43
65760;BME280;52496;51.082;5.066;2023-06-22T01:58:21;101675.41;;;19.82;96.95
65760;BME280;52496;51.082;5.066;2023-06-22T02:00:58;101670.19;;;19.80;97.06
65760;BME280;52496;51.082;5.066;2023-06-22T02:03:34;101675.59;;;19.80;96.36
65760;BME280;52496;51.082;5.066;2023-06-22T02:06:40;101671.44;;;19.78;96.12
65760;BME280;52496;51.082;5.066;2023-06-22T02:09:16;101676.88;;;19.78;96.82
65760;BME280;52496;51.082;5.066;2023-06-22T02:11:48;101671.44;;;19.78;96.36
65760;BME280;52496;51.082;5.066;2023-06-22T02:14:24;101664.38;;;19.77;96.60
65760;BME280;52496;51.082;5.066;2023-06-22T02:16:56;101668.16;;;19.76;96.93
65760;BME280;52496;51.082;5.066;2023-06-22T02:19:30;101668.38;;;19.74;96.84
65760;BME280;52496;51.082;5.066;2023-06-22T02:22:03;101671.31;;;19.73;97.69
65760;BME280;52496;51.082;5.066;2023-06-22T02:24:34;101665.06;;;19.72;96.57
65760;BME280;52496;51.082;5.066;2023-06-22T02:27:05;101669.66;;;19.71;97.40
65760;BME280;52496;51.082;5.066;2023-06-22T02:29:37;101673.41;;;19.70;97.68
65760;BME280;52496;51.082;5.066;2023-06-22T02:32:07;101672.34;;;19.71;97.43
65760;BME280;52496;51.082;5.066;2023-06-22T02:34:38;101667.78;;;19.72;97.39
65760;BME280;52496;51.082;5.066;2023-06-22T02:37:08;101660.47;;;19.73;97.52
65760;BME280;52496;51.082;5.066;2023-06-22T02:39:40;101668.59;;;19.73;97.95
65760;BME280;52496;51.082;5.066;2023-06-22T02:42:11;101664.81;;;19.74;97.73
65760;BME280;52496;51.082;5.066;2023-06-22T02:44:41;101654.44;;;19.70;98.20
65760;BME280;52496;51.082;5.066;2023-06-22T02:47:12;101654.88;;;19.67;98.50
65760;BME280;52496;51.082;5.066;2023-06-22T02:49:43;101649.03;;;19.64;98.71
65760;BME280;52496;51.082;5.066;2023-06-22T02:52:15;101631.13;;;19.63;98.83
65760;BME280;52496;51.082;5.066;2023-06-22T02:54:45;101636.13;;;19.59;99.70
65760;BME280;52496;51.082;5.066;2023-06-22T02:57:16;101624.09;;;19.55;99.20
65760;BME280;52496;51.082;5.066;2023-06-22T02:59:46;101613.69;;;19.52;100.00
65760;BME280;52496;51.082;5.066;2023-06-22T03:02:17;101617.91;;;19.48;99.84
65760;BME280;52496;51.082;5.066;2023-06-22T03:04:48;101615.66;;;19.45;100.00
65760;BME280;52496;51.082;5.066;2023-06-22T03:07:22;101623.16;;;19.43;100.00
65760;BME280;52496;51.082;5.066;2023-06-22T03:09:52;101626.34;;;19.40;100.00
65760;BME280;52496;51.082;5.066;2023-06-22T03:12:23;101618.03;;;19.35;100.00
65760;BME280;52496;51.082;5.066;2023-06-22T03:14:53;101615.75;;;19.32;100.00
65760;BME280;52496;51.082;5.066;2023-06-22T03:17:24;101617.88;;;19.30;100.00
65760;BME280;52496;51.082;5.066;2023-06-22T03:19:55;101616.22;;;19.29;100.00
65760;BME280;52496;51.082;5.066;2023-06-22T03:22:25;101609.13;;;19.28;100.00
65760;BME280;52496;51.082;5.066;2023-06-22T03:24:56;101603.09;;;19.25;100.00
65760;BME280;52496;51.082;5.066;2023-06-22T03:27:26;101596.84;;;19.25;100.00
65760;BME280;52496;51.082;5.066;2023-06-22T03:29:57;101599.34;;;19.27;100.00
65760;BME280;52496;51.082;5.066;2023-06-22T03:32:28;101605.59;;;19.27;100.00
65760;BME280;52496;51.082;5.066;2023-06-22T03:34:58;101610.78;;;19.29;100.00
65760;BME280;52496;51.082;5.066;2023-06-22T03:37:29;101605.97;;;19.31;100.00
65760;BME280;52496;51.082;5.066;2023-06-22T03:40:00;101607.63;;;19.32;100.00
65760;BME280;52496;51.082;5.066;2023-06-22T03:42:30;101613.06;;;19.32;100.00
65760;BME280;52496;51.082;5.066;2023-06-22T03:45:01;101620.16;;;19.33;100.00
65760;BME280;52496;51.082;5.066;2023-06-22T03:47:33;101614.28;;;19.36;100.00
65760;BME280;52496;51.082;5.066;2023-06-22T03:50:04;101612.16;;;19.38;100.00
65760;BME280;52496;51.082;5.066;2023-06-22T03:52:36;101608.41;;;19.39;100.00
65760;BME280;52496;51.082;5.066;2023-06-22T03:55:07;101608.53;;;19.44;100.00
65760;BME280;52496;51.082;5.066;2023-06-22T03:57:37;101603.72;;;19.46;100.00
65760;BME280;52496;51.082;5.066;2023-06-22T04:00:08;101599.97;;;19.47;100.00
65760;BME280;52496;51.082;5.066;2023-06-22T04:02:40;101600.34;;;19.51;100.00
65760;BME280;52496;51.082;5.066;2023-06-22T04:05:10;101600.72;;;19.54;100.00
65760;BME280;52496;51.082;5.066;2023-06-22T04:07:41;101608.63;;;19.56;100.00
65760;BME280;52496;51.082;5.066;2023-06-22T04:10:11;101606.09;;;19.61;100.00
65760;BME280;52496;51.082;5.066;2023-06-22T04:12:42;101607.31;;;19.65;100.00
65760;BME280;52496;51.082;5.066;2023-06-22T04:15:13;101604.50;;;19.71;100.00
65760;BME280;52496;51.082;5.066;2023-06-22T04:17:43;101601.97;;;19.77;100.00
65760;BME280;52496;51.082;5.066;2023-06-22T04:20:14;101596.91;;;19.80;100.00
65760;BME280;52496;51.082;5.066;2023-06-22T04:22:44;101601.41;;;19.86;100.00
65760;BME280;52496;51.082;5.066;2023-06-22T04:25:17;101607.81;;;19.92;100.00
65760;BME280;52496;51.082;5.066;2023-06-22T04:27:47;101610.69;;;19.97;100.00
65760;BME280;52496;51.082;5.066;2023-06-22T04:30:18;101609.41;;;20.00;100.00
65760;BME280;52496;51.082;5.066;2023-06-22T04:32:49;101612.72;;;20.02;100.00
65760;BME280;52496;51.082;5.066;2023-06-22T04:35:26;101614.75;;;20.06;100.00
65760;BME280;52496;51.082;5.066;2023-06-22T04:37:59;101616.41;;;20.07;100.00
65760;BME280;52496;51.082;5.066;2023-06-22T04:40:29;101603.44;;;20.09;100.00
65760;BME280;52496;51.082;5.066;2023-06-22T04:43:00;101603.66;;;20.08;100.00
65760;BME280;52496;51.082;5.066;2023-06-22T04:45:33;101598.00;;;20.09;100.00
65760;BME280;52496;51.082;5.066;2023-06-22T04:48:04;101604.63;;;20.13;100.00
65760;BME280;52496;51.082;5.066;2023-06-22T04:50:38;101607.94;;;20.15;100.00
65760;BME280;52496;51.082;5.066;2023-06-22T04:53:09;101597.66;;;20.17;100.00
65760;BME280;52496;51.082;5.066;2023-06-22T04:55:42;101601.00;;;20.20;100.00
65760;BME280;52496;51.082;5.066;2023-06-22T04:58:15;101595.09;;;20.23;100.00
65760;BME280;52496;51.082;5.066;2023-06-22T05:00:46;101604.88;;;20.24;100.00
65760;BME280;52496;51.082;5.066;2023-06-22T05:03:16;101599.84;;;20.27;100.00
65760;BME280;52496;51.082;5.066;2023-06-22T05:05:48;101607.75;;;20.29;100.00
65760;BME280;52496;51.082;5.066;2023-06-22T05:08:19;101611.06;;;20.31;100.00
65760;BME280;52496;51.082;5.066;2023-06-22T05:10:49;101608.97;;;20.33;100.00
65760;BME280;52496;51.082;5.066;2023-06-22T05:13:19;101614.75;;;20.36;100.00
65760;BME280;52496;51.082;5.066;2023-06-22T05:15:51;101610.75;;;20.39;100.00
65760;BME280;52496;51.082;5.066;2023-06-22T05:18:22;101619.75;;;20.39;100.00
65760;BME280;52496;51.082;5.066;2023-06-22T05:20:53;101625.53;;;20.43;100.00
65760;BME280;52496;51.082;5.066;2023-06-22T05:23:24;101638.81;;;20.51;100.00
65760;BME280;52496;51.082;5.066;2023-06-22T05:25:54;101637.06;;;20.57;100.00
65760;BME280;52496;51.082;5.066;2023-06-22T05:28:27;101648.06;;;20.62;100.00
65760;BME280;52496;51.082;5.066;2023-06-22T05:30:58;101649.25;;;20.66;100.00
65760;BME280;52496;51.082;5.066;2023-06-22T05:33:28;101642.31;;;20.70;100.00
65760;BME280;52496;51.082;5.066;2023-06-22T05:35:59;101641.72;;;20.80;100.00
65760;BME280;52496;51.082;5.066;2023-06-22T05:38:30;101642.81;;;20.91;100.00
65760;BME280;52496;51.082;5.066;2023-06-22T05:41:00;101647.09;;;20.98;100.00
65760;BME280;52496;51.082;5.066;2023-06-22T05:43:32;101641.31;;;21.06;100.00
65760;BME280;52496;51.082;5.066;2023-06-22T05:46:04;101634.81;;;21.07;99.06
65760;BME280;52496;51.082;5.066;2023-06-22T05:48:35;101642.50;;;21.11;98.60
65760;BME280;52496;51.082;5.066;2023-06-22T05:51:05;101637.06;;;21.11;97.29
65760;BME280;52496;51.082;5.066;2023-06-22T05:53:36;101634.19;;;21.05;97.53
65760;BME280;52496;51.082;5.066;2023-06-22T05:56:06;101639.28;;;21.02;96.98
65760;BME280;52496;51.082;5.066;2023-06-22T05:58:37;101650.97;;;21.02;98.69
65760;BME280;52496;51.082;5.066;2023-06-22T06:01:07;101658.91;;;21.04;99.26
65760;BME280;52496;51.082;5.066;2023-06-22T06:03:38;101648.88;;;21.04;99.06
65760;BME280;52496;51.082;5.066;2023-06-22T06:06:11;101651.84;;;21.03;99.01
65760;BME280;52496;51.082;5.066;2023-06-22T06:08:42;101650.88;;;20.97;100.00
65760;BME280;52496;51.082;5.066;2023-06-22T06:11:13;101643.06;;;20.89;100.00
65760;BME280;52496;51.082;5.066;2023-06-22T06:13:43;101636.97;;;20.75;100.00
65760;BME280;52496;51.082;5.066;2023-06-22T06:16:14;101634.59;;;20.55;100.00
65760;BME280;52496;51.082;5.066;2023-06-22T06:18:44;101638.16;;;20.37;100.00
65760;BME280;52496;51.082;5.066;2023-06-22T06:21:15;101641.25;;;20.23;100.00
65760;BME280;52496;51.082;5.066;2023-06-22T06:23:45;101636.84;;;20.10;100.00
65760;BME280;52496;51.082;5.066;2023-06-22T06:26:17;101642.81;;;20.00;100.00
65760;BME280;52496;51.082;5.066;2023-06-22T06:28:48;101643.28;;;19.97;100.00
65760;BME280;52496;51.082;5.066;2023-06-22T06:31:18;101642.44;;;19.97;100.00
65760;BME280;52496;51.082;5.066;2023-06-22T06:33:48;101636.56;;;20.00;100.00
65760;BME280;52496;51.082;5.066;2023-06-22T06:36:19;101620.63;;;20.03;100.00
65760;BME280;52496;51.082;5.066;2023-06-22T06:38:50;101619.94;;;20.08;100.00
65760;BME280;52496;51.082;5.066;2023-06-22T06:41:20;101618.50;;;20.05;100.00
65760;BME280;52496;51.082;5.066;2023-06-22T06:43:51;101609.31;;;20.06;100.00
65760;BME280;52496;51.082;5.066;2023-06-22T06:46:22;101596.56;;;20.07;100.00
65760;BME280;52496;51.082;5.066;2023-06-22T06:48:52;101594.69;;;20.07;100.00
65760;BME280;52496;51.082;5.066;2023-06-22T06:51:23;101600.09;;;20.07;100.00
65760;BME280;52496;51.082;5.066;2023-06-22T06:53:53;101598.47;;;20.06;100.00
65760;BME280;52496;51.082;5.066;2023-06-22T06:56:24;101594.31;;;20.04;100.00
65760;BME280;52496;51.082;5.066;2023-06-22T06:58:54;101583.31;;;19.99;100.00
65760;BME280;52496;51.082;5.066;2023-06-22T07:01:25;101579.75;;;19.98;100.00
65760;BME280;52496;51.082;5.066;2023-06-22T07:03:56;101575.06;;;20.05;100.00
65760;BME280;52496;51.082;5.066;2023-06-22T07:06:27;101567.78;;;20.17;100.00
65760;BME280;52496;51.082;5.066;2023-06-22T07:09:02;101568.53;;;20.25;100.00
65760;BME280;52496;51.082;5.066;2023-06-22T07:11:33;101573.06;;;20.31;100.00
65760;BME280;52496;51.082;5.066;2023-06-22T07:14:05;101572.22;;;20.30;100.00
65760;BME280;52496;51.082;5.066;2023-06-22T07:16:36;101565.97;;;20.30;100.00
65760;BME280;52496;51.082;5.066;2023-06-22T07:19:07;101558.41;;;20.32;100.00
65760;BME280;52496;51.082;5.066;2023-06-22T07:21:38;101548.28;;;20.39;100.00
65760;BME280;52496;51.082;5.066;2023-06-22T07:24:09;101534.31;;;20.35;100.00
65760;BME280;52496;51.082;5.066;2023-06-22T07:26:40;101525.81;;;20.32;100.00
65760;BME280;52496;51.082;5.066;2023-06-22T07:29:19;101520.97;;;20.34;100.00
65760;BME280;52496;51.082;5.066;2023-06-22T07:31:51;101519.34;;;20.33;100.00
65760;BME280;52496;51.082;5.066;2023-06-22T07:34:22;101511.19;;;20.33;100.00
65760;BME280;52496;51.082;5.066;2023-06-22T07:36:52;101522.06;;;20.33;100.00
65760;BME280;52496;51.082;5.066;2023-06-22T07:39:23;101507.88;;;20.31;100.00
65760;BME280;52496;51.082;5.066;2023-06-22T07:41:56;101504.06;;;20.32;100.00
65760;BME280;52496;51.082;5.066;2023-06-22T07:44:26;101495.47;;;20.35;100.00
65760;BME280;52496;51.082;5.066;2023-06-22T07:46:57;101482.00;;;20.40;100.00
65760;BME280;52496;51.082;5.066;2023-06-22T07:49:28;101492.16;;;20.45;100.00
65760;BME280;52496;51.082;5.066;2023-06-22T07:51:59;101486.63;;;20.51;100.00
65760;BME280;52496;51.082;5.066;2023-06-22T07:54:31;101492.34;;;20.61;100.00
65760;BME280;52496;51.082;5.066;2023-06-22T07:57:02;101490.94;;;20.71;100.00
65760;BME280;52496;51.082;5.066;2023-06-22T07:59:33;101488.44;;;20.81;100.00
65760;BME280;52496;51.082;5.066;2023-06-22T08:02:04;101493.75;;;20.88;100.00
65760;BME280;52496;51.082;5.066;2023-06-22T08:04:35;101490.09;;;20.94;100.00
65760;BME280;52496;51.082;5.066;2023-06-22T08:07:05;101488.31;;;20.99;100.00
65760;BME280;52496;51.082;5.066;2023-06-22T08:09:36;101474.81;;;21.04;100.00
65760;BME280;52496;51.082;5.066;2023-06-22T08:12:07;101481.44;;;21.08;100.00
65760;BME280;52496;51.082;5.066;2023-06-22T08:14:38;101482.63;;;21.13;100.00
65760;BME280;52496;51.082;5.066;2023-06-22T08:17:09;101484.28;;;21.14;100.00
65760;BME280;52496;51.082;5.066;2023-06-22T08:19:39;101482.97;;;21.16;100.00
65760;BME280;52496;51.082;5.066;2023-06-22T08:22:10;101489.56;;;21.20;100.00
65760;BME280;52496;51.082;5.066;2023-06-22T08:24:40;101474.56;;;21.18;100.00
65760;BME280;52496;51.082;5.066;2023-06-22T08:27:11;101476.44;;;21.17;100.00
65760;BME280;52496;51.082;5.066;2023-06-22T08:29:51;101469.13;;;21.18;100.00
65760;BME280;52496;51.082;5.066;2023-06-22T08:32:28;101459.09;;;21.18;100.00
65760;BME280;52496;51.082;5.066;2023-06-22T08:34:59;101457.75;;;21.21;100.00
65760;BME280;52496;51.082;5.066;2023-06-22T08:37:29;101454.34;;;21.25;100.00
65760;BME280;52496;51.082;5.066;2023-06-22T08:40:07;101457.66;;;21.27;100.00
65760;BME280;52496;51.082;5.066;2023-06-22T08:42:40;101462.94;;;21.34;100.00
65760;BME280;52496;51.082;5.066;2023-06-22T08:45:12;101458.69;;;21.38;100.00
65760;BME280;52496;51.082;5.066;2023-06-22T08:47:43;101456.56;;;21.40;100.00
65760;BME280;52496;51.082;5.066;2023-06-22T08:50:13;101460.13;;;21.41;100.00
65760;BME280;52496;51.082;5.066;2023-06-22T08:52:44;101460.13;;;21.41;100.00
65760;BME280;52496;51.082;5.066;2023-06-22T08:55:15;101453.72;;;21.35;100.00
65760;BME280;52496;51.082;5.066;2023-06-22T08:57:46;101459.63;;;21.32;100.00
65760;BME280;52496;51.082;5.066;2023-06-22T09:00:18;101465.56;;;21.29;100.00
65760;BME280;52496;51.082;5.066;2023-06-22T09:02:50;101466.84;;;21.26;100.00
65760;BME280;52496;51.082;5.066;2023-06-22T09:05:21;101470.88;;;21.24;100.00
65760;BME280;52496;51.082;5.066;2023-06-22T09:07:52;101467.59;;;21.22;100.00
65760;BME280;52496;51.082;5.066;2023-06-22T09:10:25;101463.19;;;21.21;100.00
65760;BME280;52496;51.082;5.066;2023-06-22T09:12:57;101472.44;;;21.20;100.00
65760;BME280;52496;51.082;5.066;2023-06-22T09:15:27;101468.63;;;21.21;100.00
65760;BME280;52496;51.082;5.066;2023-06-22T09:17:58;101467.94;;;21.14;100.00
65760;BME280;52496;51.082;5.066;2023-06-22T09:20:28;101466.44;;;21.06;100.00
65760;BME280;52496;51.082;5.066;2023-06-22T09:23:02;101462.78;;;21.00;100.00
65760;BME280;52496;51.082;5.066;2023-06-22T09:25:33;101473.53;;;20.95;100.00
65760;BME280;52496;51.082;5.066;2023-06-22T09:28:03;101471.16;;;20.87;100.00
65760;BME280;52496;51.082;5.066;2023-06-22T09:30:34;101465.63;;;20.82;100.00
65760;BME280;52496;51.082;5.066;2023-06-22T09:33:04;101481.81;;;20.77;100.00
65760;BME280;52496;51.082;5.066;2023-06-22T09:35:35;101481.69;;;20.72;100.00
65760;BME280;52496;51.082;5.066;2023-06-22T09:38:05;101477.81;;;20.68;100.00
65760;BME280;52496;51.082;5.066;2023-06-22T09:40:35;101487.84;;;20.67;100.00
65760;BME280;52496;51.082;5.066;2023-06-22T09:43:10;101483.13;;;20.62;100.00
65760;BME280;52496;51.082;5.066;2023-06-22T09:45:41;101485.25;;;20.60;100.00
65760;BME280;52496;51.082;5.066;2023-06-22T09:48:12;101487.50;;;20.52;100.00
65760;BME280;52496;51.082;5.066;2023-06-22T09:50:43;101488.41;;;20.46;100.00
65760;BME280;52496;51.082;5.066;2023-06-22T09:53:14;101488.53;;;20.39;100.00
65760;BME280;52496;51.082;5.066;2023-06-22T09:55:44;101490.03;;;20.35;100.00
65760;BME280;52496;51.082;5.066;2023-06-22T09:58:15;101508.69;;;20.31;100.00
65760;BME280;52496;51.082;5.066;2023-06-22T10:00:48;101510.34;;;20.32;100.00
65760;BME280;52496;51.082;5.066;2023-06-22T10:03:19;101515.91;;;20.37;100.00
65760;BME280;52496;51.082;5.066;2023-06-22T10:05:50;101531.50;;;20.42;100.00
65760;BME280;52496;51.082;5.066;2023-06-22T10:08:20;101536.03;;;20.48;100.00
65760;BME280;52496;51.082;5.066;2023-06-22T10:10:51;101534.94;;;20.49;100.00
65760;BME280;52496;51.082;5.066;2023-06-22T10:13:21;101545.22;;;20.47;100.00
65760;BME280;52496;51.082;5.066;2023-06-22T10:15:51;101544.38;;;20.47;100.00
65760;BME280;52496;51.082;5.066;2023-06-22T10:18:23;101540.97;;;20.51;100.00
65760;BME280;52496;51.082;5.066;2023-06-22T10:20:53;101544.91;;;20.55;100.00
65760;BME280;52496;51.082;5.066;2023-06-22T10:23:24;101546.69;;;20.61;100.00
65760;BME280;52496;51.082;5.066;2023-06-22T10:25:54;101540.78;;;20.65;100.00
65760;BME280;52496;51.082;5.066;2023-06-22T10:28:28;101546.81;;;20.67;100.00
65760;BME280;52496;51.082;5.066;2023-06-22T10:30:58;101539.72;;;20.66;100.00
65760;BME280;52496;51.082;5.066;2023-06-22T10:33:29;101531.09;;;20.69;100.00
65760;BME280;52496;51.082;5.066;2023-06-22T10:36:00;101529.78;;;20.71;100.00
65760;BME280;52496;51.082;5.066;2023-06-22T10:38:30;101533.47;;;20.77;100.00
65760;BME280;52496;51.082;5.066;2023-06-22T10:41:01;101530.97;;;20.75;100.00
65760;BME280;52496;51.082;5.066;2023-06-22T10:43:32;101526.00;;;20.72;100.00
65760;BME280;52496;51.082;5.066;2023-06-22T10:46:02;101526.13;;;20.66;100.00
65760;BME280;52496;51.082;5.066;2023-06-22T10:48:33;101518.34;;;20.57;100.00
65760;BME280;52496;51.082;5.066;2023-06-22T10:51:04;101510.66;;;20.54;100.00
65760;BME280;52496;51.082;5.066;2023-06-22T10:53:34;101504.16;;;20.55;100.00
65760;BME280;52496;51.082;5.066;2023-06-22T10:56:05;101509.47;;;20.62;100.00
65760;BME280;52496;51.082;5.066;2023-06-22T10:58:35;101506.06;;;20.67;100.00
65760;BME280;52496;51.082;5.066;2023-06-22T11:01:05;101505.94;;;20.73;100.00
65760;BME280;52496;51.082;5.066;2023-06-22T11:03:36;101503.56;;;20.77;100.00
65760;BME280;52496;51.082;5.066;2023-06-22T11:06:07;101504.66;;;20.76;100.00
65760;BME280;52496;51.082;5.066;2023-06-22T11:08:37;101495.28;;;20.72;100.00
65760;BME280;52496;51.082;5.066;2023-06-22T11:11:08;101487.59;;;20.69;100.00
65760;BME280;52496;51.082;5.066;2023-06-22T11:13:39;101494.13;;;20.68;100.00
65760;BME280;52496;51.082;5.066;2023-06-22T11:16:10;101482.66;;;20.66;100.00
65760;BME280;52496;51.082;5.066;2023-06-22T11:18:41;101488.69;;;20.68;100.00
65760;BME280;52496;51.082;5.066;2023-06-22T11:21:11;101473.44;;;20.67;100.00
65760;BME280;52496;51.082;5.066;2023-06-22T11:23:42;101473.06;;;20.75;100.00
65760;BME280;52496;51.082;5.066;2023-06-22T11:26:13;101460.31;;;20.75;100.00
65760;BME280;52496;51.082;5.066;2023-06-22T11:28:43;101443.19;;;20.75;100.00
65760;BME280;52496;51.082;5.066;2023-06-22T11:31:14;101439.41;;;20.76;100.00
65760;BME280;52496;51.082;5.066;2023-06-22T11:33:44;101417.66;;;20.76;100.00
65760;BME280;52496;51.082;5.066;2023-06-22T11:36:16;101412.72;;;20.73;100.00
65760;BME280;52496;51.082;5.066;2023-06-22T11:38:47;101388.13;;;20.68;100.00
65760;BME280;52496;51.082;5.066;2023-06-22T11:41:17;101386.47;;;20.67;100.00
65760;BME280;52496;51.082;5.066;2023-06-22T11:43:48;101392.63;;;20.62;100.00
65760;BME280;52496;51.082;5.066;2023-06-22T11:46:18;101398.78;;;20.57;100.00
65760;BME280;52496;51.082;5.066;2023-06-22T11:48:49;101400.91;;;20.55;100.00
65760;BME280;52496;51.082;5.066;2023-06-22T11:51:20;101404.91;;;20.53;100.00
65760;BME280;52496;51.082;5.066;2023-06-22T11:53:51;101412.69;;;20.49;100.00
65760;BME280;52496;51.082;5.066;2023-06-22T11:56:21;101428.16;;;20.49;100.00
65760;BME280;52496;51.082;5.066;2023-06-22T11:58:52;101424.03;;;20.46;100.00
65760;BME280;52496;51.082;5.066;2023-06-22T12:01:24;101412.00;;;20.42;100.00
65760;BME280;52496;51.082;5.066;2023-06-22T12:03:54;101391.06;;;20.43;100.00
65760;BME280;52496;51.082;5.066;2023-06-22T12:06:25;101401.00;;;20.37;100.00
65760;BME280;52496;51.082;5.066;2023-06-22T12:08:55;101404.19;;;20.34;100.00
65760;BME280;52496;51.082;5.066;2023-06-22T12:11:27;101393.91;;;20.24;100.00
65760;BME280;52496;51.082;5.066;2023-06-22T12:13:58;101387.75;;;20.17;100.00
65760;BME280;52496;51.082;5.066;2023-06-22T12:16:31;101381.84;;;20.20;100.00
65760;BME280;52496;51.082;5.066;2023-06-22T12:19:02;101372.06;;;20.19;100.00
65760;BME280;52496;51.082;5.066;2023-06-22T12:21:33;101374.88;;;20.12;100.00
65760;BME280;52496;51.082;5.066;2023-06-22T12:24:03;101378.16;;;20.14;100.00
65760;BME280;52496;51.082;5.066;2023-06-22T12:26:34;101399.44;;;20.17;100.00
65760;BME280;52496;51.082;5.066;2023-06-22T12:29:04;101402.41;;;20.16;100.00
65760;BME280;52496;51.082;5.066;2023-06-22T12:31:36;101409.59;;;20.10;100.00
65760;BME280;52496;51.082;5.066;2023-06-22T12:34:07;101390.44;;;20.05;100.00
65760;BME280;52496;51.082;5.066;2023-06-22T12:36:37;101393.63;;;20.02;100.00
65760;BME280;52496;51.082;5.066;2023-06-22T12:39:08;101388.66;;;19.99;100.00
65760;BME280;52496;51.082;5.066;2023-06-22T12:41:38;101387.28;;;19.97;100.00
65760;BME280;52496;51.082;5.066;2023-06-22T12:44:09;101360.81;;;19.92;100.00
65760;BME280;52496;51.082;5.066;2023-06-22T12:46:39;101338.50;;;19.90;100.00
65760;BME280;52496;51.082;5.066;2023-06-22T12:49:11;101337.31;;;19.86;100.00
65760;BME280;52496;51.082;5.066;2023-06-22T12:51:43;101336.97;;;19.82;100.00
65760;BME280;52496;51.082;5.066;2023-06-22T12:54:14;101314.91;;;19.79;100.00
65760;BME280;52496;51.082;5.066;2023-06-22T12:56:45;101319.03;;;19.81;100.00
65760;BME280;52496;51.082;5.066;2023-06-22T12:59:16;101323.63;;;19.81;100.00
65760;BME280;52496;51.082;5.066;2023-06-22T13:01:47;101327.41;;;19.80;100.00
65760;BME280;52496;51.082;5.066;2023-06-22T13:04:18;101339.06;;;19.80;100.00